sensor_id;sensor_type;location;lat;lon;timestamp;P1;durP1;ratioP1;P2;durP2;ratioP2
81374;SDS011;70828;51.158;4.998;2023-06-19T00:01:56;4.57;;;2.40;;
81374;SDS011;70828;51.158;4.998;2023-06-19T00:04:22;5.97;;;3.20;;
81374;SDS011;70828;51.158;4.998;2023-06-19T00:06:49;6.35;;;3.47;;
81374;SDS011;70828;51.158;4.998;2023-06-19T00:09:15;5.03;;;3.00;;
81374;SDS011;70828;51.158;4.998;2023-06-19T00:11:42;4.25;;;2.55;;
81374;SDS011;70828;51.158;4.998;2023-06-19T00:14:09;5.47;;;2.80;;
81374;SDS011;70828;51.158;4.998;2023-06-19T00:16:35;3.67;;;2.42;;
81374;SDS011;70828;51.158;4.998;2023-06-19T00:19:03;6.35;;;3.05;;
81374;SDS011;70828;51.158;4.998;2023-06-19T00:21:30;5.45;;;2.90;;
81374;SDS011;70828;51.158;4.998;2023-06-19T00:23:57;4.95;;;2.47;;
81374;SDS011;70828;51.158;4.998;2023-06-19T00:26:23;5.68;;;3.30;;
81374;SDS011;70828;51.158;4.998;2023-06-19T00:28:50;5.90;;;3.10;;
81374;SDS011;70828;51.158;4.998;2023-06-19T00:31:17;6.55;;;2.58;;
81374;SDS011;70828;51.158;4.998;2023-06-19T00:33:44;5.53;;;2.67;;
81374;SDS011;70828;51.158;4.998;2023-06-19T00:36:14;5.82;;;2.58;;
81374;SDS011;70828;51.158;4.998;2023-06-19T00:38:41;4.47;;;2.90;;
81374;SDS011;70828;51.158;4.998;2023-06-19T00:41:08;5.72;;;2.85;;
81374;SDS011;70828;51.158;4.998;2023-06-19T00:43:35;5.00;;;3.08;;
81374;SDS011;70828;51.158;4.998;2023-06-19T00:46:01;4.35;;;2.45;;
81374;SDS011;70828;51.158;4.998;2023-06-19T00:48:29;7.05;;;2.92;;
81374;SDS011;70828;51.158;4.998;2023-06-19T00:50:56;4.80;;;2.50;;
81374;SDS011;70828;51.158;4.998;2023-06-19T00:53:24;5.15;;;2.40;;
81374;SDS011;70828;51.158;4.998;2023-06-19T00:55:52;6.30;;;2.97;;
81374;SDS011;70828;51.158;4.998;2023-06-19T00:58:19;6.13;;;2.40;;
81374;SDS011;70828;51.158;4.998;2023-06-19T01:00:46;4.70;;;2.83;;
81374;SDS011;70828;51.158;4.998;2023-06-19T01:03:13;4.47;;;2.40;;
81374;SDS011;70828;51.158;4.998;2023-06-19T01:05:40;4.32;;;2.75;;
81374;SDS011;70828;51.158;4.998;2023-06-19T01:08:08;6.05;;;2.25;;
81374;SDS011;70828;51.158;4.998;2023-06-19T01:10:40;4.82;;;2.92;;
81374;SDS011;70828;51.158;4.998;2023-06-19T01:13:10;4.78;;;2.65;;
81374;SDS011;70828;51.158;4.998;2023-06-19T01:15:39;4.82;;;2.10;;
81374;SDS011;70828;51.158;4.998;2023-06-19T01:18:08;5.43;;;2.92;;
81374;SDS011;70828;51.158;4.998;2023-06-19T01:20:36;4.25;;;2.47;;
81374;SDS011;70828;51.158;4.998;2023-06-19T01:23:08;4.43;;;2.47;;
81374;SDS011;70828;51.158;4.998;2023-06-19T01:25:35;7.28;;;3.63;;
81374;SDS011;70828;51.158;4.998;2023-06-19T01:28:02;4.10;;;2.33;;
81374;SDS011;70828;51.158;4.998;2023-06-19T01:30:30;3.80;;;2.13;;
81374;SDS011;70828;51.158;4.998;2023-06-19T01:32:58;6.75;;;2.30;;
81374;SDS011;70828;51.158;4.998;2023-06-19T01:35:28;5.68;;;2.42;;
81374;SDS011;70828;51.158;4.998;2023-06-19T01:37:55;3.83;;;1.95;;
81374;SDS011;70828;51.158;4.998;2023-06-19T01:40:26;4.57;;;1.98;;
81374;SDS011;70828;51.158;4.998;2023-06-19T01:42:56;5.38;;;3.00;;
81374;SDS011;70828;51.158;4.998;2023-06-19T01:45:26;4.80;;;2.25;;
81374;SDS011;70828;51.158;4.998;2023-06-19T01:47:53;8.60;;;3.42;;
81374;SDS011;70828;51.158;4.998;2023-06-19T01:50:20;4.53;;;2.38;;
81374;SDS011;70828;51.158;4.998;2023-06-19T01:52:47;5.22;;;2.03;;
81374;SDS011;70828;51.158;4.998;2023-06-19T01:55:14;4.53;;;2.30;;
81374;SDS011;70828;51.158;4.998;2023-06-19T01:57:42;4.72;;;2.38;;
81374;SDS011;70828;51.158;4.998;2023-06-19T02:00:11;5.05;;;2.70;;
81374;SDS011;70828;51.158;4.998;2023-06-19T02:02:38;5.60;;;2.33;;
81374;SDS011;70828;51.158;4.998;2023-06-19T02:05:05;5.25;;;2.80;;
81374;SDS011;70828;51.158;4.998;2023-06-19T02:07:32;4.15;;;2.55;;
81374;SDS011;70828;51.158;4.998;2023-06-19T02:09:59;4.53;;;2.50;;
81374;SDS011;70828;51.158;4.998;2023-06-19T02:12:25;5.47;;;2.38;;
81374;SDS011;70828;51.158;4.998;2023-06-19T02:14:54;5.55;;;2.83;;
81374;SDS011;70828;51.158;4.998;2023-06-19T02:17:20;4.75;;;2.45;;
81374;SDS011;70828;51.158;4.998;2023-06-19T02:19:47;4.78;;;2.25;;
81374;SDS011;70828;51.158;4.998;2023-06-19T02:22:14;3.42;;;1.92;;
81374;SDS011;70828;51.158;4.998;2023-06-19T02:24:40;3.42;;;2.28;;
81374;SDS011;70828;51.158;4.998;2023-06-19T02:27:09;3.05;;;2.03;;
81374;SDS011;70828;51.158;4.998;2023-06-19T02:29:36;4.53;;;2.05;;
81374;SDS011;70828;51.158;4.998;2023-06-19T02:32:05;3.45;;;2.40;;
81374;SDS011;70828;51.158;4.998;2023-06-19T02:34:32;4.28;;;2.70;;
81374;SDS011;70828;51.158;4.998;2023-06-19T02:36:58;4.05;;;2.45;;
81374;SDS011;70828;51.158;4.998;2023-06-19T02:39:26;4.38;;;2.65;;
81374;SDS011;70828;51.158;4.998;2023-06-19T02:41:53;6.93;;;2.88;;
81374;SDS011;70828;51.158;4.998;2023-06-19T02:44:20;6.35;;;2.33;;
81374;SDS011;70828;51.158;4.998;2023-06-19T02:46:46;6.55;;;2.95;;
81374;SDS011;70828;51.158;4.998;2023-06-19T02:49:14;4.45;;;2.75;;
81374;SDS011;70828;51.158;4.998;2023-06-19T02:51:41;4.53;;;2.55;;
81374;SDS011;70828;51.158;4.998;2023-06-19T02:54:08;3.50;;;2.42;;
81374;SDS011;70828;51.158;4.998;2023-06-19T02:56:34;5.38;;;2.60;;
81374;SDS011;70828;51.158;4.998;2023-06-19T02:59:01;4.53;;;2.60;;
81374;SDS011;70828;51.158;4.998;2023-06-19T03:01:27;3.72;;;2.40;;
81374;SDS011;70828;51.158;4.998;2023-06-19T03:03:54;3.97;;;2.53;;
81374;SDS011;70828;51.158;4.998;2023-06-19T03:06:22;5.03;;;2.90;;
81374;SDS011;70828;51.158;4.998;2023-06-19T03:08:49;4.82;;;2.83;;
81374;SDS011;70828;51.158;4.998;2023-06-19T03:11:15;4.13;;;2.70;;
81374;SDS011;70828;51.158;4.998;2023-06-19T03:13:46;4.55;;;2.97;;
81374;SDS011;70828;51.158;4.998;2023-06-19T03:16:13;5.05;;;2.72;;
81374;SDS011;70828;51.158;4.998;2023-06-19T03:18:40;4.55;;;2.97;;
81374;SDS011;70828;51.158;4.998;2023-06-19T03:21:07;5.80;;;2.88;;
81374;SDS011;70828;51.158;4.998;2023-06-19T03:23:35;6.75;;;2.88;;
81374;SDS011;70828;51.158;4.998;2023-06-19T03:26:02;6.75;;;2.90;;
81374;SDS011;70828;51.158;4.998;2023-06-19T03:28:28;5.95;;;2.85;;
81374;SDS011;70828;51.158;4.998;2023-06-19T03:30:55;5.68;;;2.75;;
81374;SDS011;70828;51.158;4.998;2023-06-19T03:33:22;4.60;;;2.80;;
81374;SDS011;70828;51.158;4.998;2023-06-19T03:35:48;5.53;;;2.60;;
81374;SDS011;70828;51.158;4.998;2023-06-19T03:38:15;4.45;;;3.15;;
81374;SDS011;70828;51.158;4.998;2023-06-19T03:40:43;5.40;;;3.00;;
81374;SDS011;70828;51.158;4.998;2023-06-19T03:43:10;7.60;;;3.33;;
81374;SDS011;70828;51.158;4.998;2023-06-19T03:45:37;5.22;;;2.92;;
81374;SDS011;70828;51.158;4.998;2023-06-19T03:48:04;7.75;;;2.97;;
81374;SDS011;70828;51.158;4.998;2023-06-19T03:50:30;4.03;;;3.13;;
81374;SDS011;70828;51.158;4.998;2023-06-19T03:52:57;6.63;;;2.95;;
81374;SDS011;70828;51.158;4.998;2023-06-19T03:55:24;4.78;;;2.92;;
81374;SDS011;70828;51.158;4.998;2023-06-19T03:57:52;6.55;;;3.05;;
81374;SDS011;70828;51.158;4.998;2023-06-19T04:00:19;7.15;;;3.15;;
81374;SDS011;70828;51.158;4.998;2023-06-19T04:02:45;5.43;;;2.72;;
81374;SDS011;70828;51.158;4.998;2023-06-19T04:05:12;8.60;;;2.85;;
81374;SDS011;70828;51.158;4.998;2023-06-19T04:07:40;5.70;;;3.05;;
81374;SDS011;70828;51.158;4.998;2023-06-19T04:10:07;10.05;;;3.45;;
81374;SDS011;70828;51.158;4.998;2023-06-19T04:12:36;4.88;;;2.88;;
81374;SDS011;70828;51.158;4.998;2023-06-19T04:15:05;6.88;;;3.63;;
81374;SDS011;70828;51.158;4.998;2023-06-19T04:17:32;5.05;;;3.42;;
81374;SDS011;70828;51.158;4.998;2023-06-19T04:19:58;4.97;;;3.03;;
81374;SDS011;70828;51.158;4.998;2023-06-19T04:22:25;5.03;;;3.17;;
81374;SDS011;70828;51.158;4.998;2023-06-19T04:24:52;8.00;;;3.30;;
81374;SDS011;70828;51.158;4.998;2023-06-19T04:27:18;5.68;;;3.30;;
81374;SDS011;70828;51.158;4.998;2023-06-19T04:29:45;4.85;;;2.92;;
81374;SDS011;70828;51.158;4.998;2023-06-19T04:32:13;8.75;;;3.60;;
81374;SDS011;70828;51.158;4.998;2023-06-19T04:34:40;7.65;;;3.63;;
81374;SDS011;70828;51.158;4.998;2023-06-19T04:37:11;9.35;;;3.30;;
81374;SDS011;70828;51.158;4.998;2023-06-19T04:39:38;8.30;;;3.40;;
81374;SDS011;70828;51.158;4.998;2023-06-19T04:42:05;7.72;;;3.40;;
81374;SDS011;70828;51.158;4.998;2023-06-19T04:44:32;5.68;;;3.45;;
81374;SDS011;70828;51.158;4.998;2023-06-19T04:46:59;6.88;;;3.58;;
81374;SDS011;70828;51.158;4.998;2023-06-19T04:49:28;5.68;;;3.47;;
81374;SDS011;70828;51.158;4.998;2023-06-19T04:51:56;5.60;;;3.15;;
81374;SDS011;70828;51.158;4.998;2023-06-19T04:54:23;7.13;;;3.03;;
81374;SDS011;70828;51.158;4.998;2023-06-19T04:56:50;5.07;;;3.55;;
81374;SDS011;70828;51.158;4.998;2023-06-19T04:59:18;5.82;;;3.50;;
81374;SDS011;70828;51.158;4.998;2023-06-19T05:01:45;5.43;;;3.35;;
81374;SDS011;70828;51.158;4.998;2023-06-19T05:04:11;7.20;;;3.90;;
81374;SDS011;70828;51.158;4.998;2023-06-19T05:06:39;6.47;;;3.10;;
81374;SDS011;70828;51.158;4.998;2023-06-19T05:09:07;6.22;;;3.80;;
81374;SDS011;70828;51.158;4.998;2023-06-19T05:11:34;7.00;;;3.28;;
81374;SDS011;70828;51.158;4.998;2023-06-19T05:14:01;6.65;;;3.40;;
81374;SDS011;70828;51.158;4.998;2023-06-19T05:16:27;5.03;;;3.08;;
81374;SDS011;70828;51.158;4.998;2023-06-19T05:18:54;5.20;;;3.35;;
81374;SDS011;70828;51.158;4.998;2023-06-19T05:21:21;5.38;;;2.83;;
81374;SDS011;70828;51.158;4.998;2023-06-19T05:23:49;10.35;;;3.50;;
81374;SDS011;70828;51.158;4.998;2023-06-19T05:26:17;5.95;;;3.20;;
81374;SDS011;70828;51.158;4.998;2023-06-19T05:28:44;7.05;;;3.15;;
81374;SDS011;70828;51.158;4.998;2023-06-19T05:31:11;5.68;;;3.10;;
81374;SDS011;70828;51.158;4.998;2023-06-19T05:33:37;4.93;;;3.40;;
81374;SDS011;70828;51.158;4.998;2023-06-19T05:36:04;6.63;;;3.03;;
81374;SDS011;70828;51.158;4.998;2023-06-19T05:38:31;6.47;;;3.40;;
81374;SDS011;70828;51.158;4.998;2023-06-19T05:40:59;6.30;;;3.53;;
81374;SDS011;70828;51.158;4.998;2023-06-19T05:43:26;5.78;;;2.85;;
81374;SDS011;70828;51.158;4.998;2023-06-19T05:45:53;4.57;;;3.15;;
81374;SDS011;70828;51.158;4.998;2023-06-19T05:48:20;6.18;;;3.17;;
81374;SDS011;70828;51.158;4.998;2023-06-19T05:50:47;8.02;;;3.38;;
81374;SDS011;70828;51.158;4.998;2023-06-19T05:53:14;5.57;;;3.47;;
81374;SDS011;70828;51.158;4.998;2023-06-19T05:55:41;7.85;;;3.85;;
81374;SDS011;70828;51.158;4.998;2023-06-19T05:58:09;7.93;;;3.42;;
81374;SDS011;70828;51.158;4.998;2023-06-19T06:00:35;6.03;;;3.70;;
81374;SDS011;70828;51.158;4.998;2023-06-19T06:03:02;5.75;;;3.78;;
81374;SDS011;70828;51.158;4.998;2023-06-19T06:05:29;5.43;;;3.17;;
81374;SDS011;70828;51.158;4.998;2023-06-19T06:07:55;6.38;;;3.05;;
81374;SDS011;70828;51.158;4.998;2023-06-19T06:10:22;10.23;;;4.32;;
81374;SDS011;70828;51.158;4.998;2023-06-19T06:12:50;6.03;;;3.55;;
81374;SDS011;70828;51.158;4.998;2023-06-19T06:15:18;5.95;;;3.85;;
81374;SDS011;70828;51.158;4.998;2023-06-19T06:17:45;7.03;;;3.53;;
81374;SDS011;70828;51.158;4.998;2023-06-19T06:20:12;5.65;;;3.30;;
81374;SDS011;70828;51.158;4.998;2023-06-19T06:22:38;6.95;;;3.65;;
81374;SDS011;70828;51.158;4.998;2023-06-19T06:25:05;5.65;;;3.58;;
81374;SDS011;70828;51.158;4.998;2023-06-19T06:27:33;5.45;;;3.88;;
81374;SDS011;70828;51.158;4.998;2023-06-19T06:29:59;6.45;;;3.20;;
81374;SDS011;70828;51.158;4.998;2023-06-19T06:32:28;8.10;;;3.90;;
81374;SDS011;70828;51.158;4.998;2023-06-19T06:37:22;5.22;;;3.47;;
81374;SDS011;70828;51.158;4.998;2023-06-19T06:39:49;7.82;;;4.05;;
81374;SDS011;70828;51.158;4.998;2023-06-19T06:42:16;5.20;;;3.38;;
81374;SDS011;70828;51.158;4.998;2023-06-19T06:44:42;7.40;;;3.65;;
81374;SDS011;70828;51.158;4.998;2023-06-19T06:47:09;7.35;;;4.20;;
81374;SDS011;70828;51.158;4.998;2023-06-19T06:49:37;8.50;;;3.95;;
81374;SDS011;70828;51.158;4.998;2023-06-19T06:52:04;7.53;;;4.40;;
81374;SDS011;70828;51.158;4.998;2023-06-19T06:54:31;5.43;;;3.92;;
81374;SDS011;70828;51.158;4.998;2023-06-19T06:56:58;7.68;;;4.95;;
81374;SDS011;70828;51.158;4.998;2023-06-19T06:59:25;5.68;;;3.85;;
81374;SDS011;70828;51.158;4.998;2023-06-19T07:01:52;7.63;;;4.72;;
81374;SDS011;70828;51.158;4.998;2023-06-19T07:04:19;7.95;;;4.78;;
81374;SDS011;70828;51.158;4.998;2023-06-19T07:06:47;11.05;;;4.75;;
81374;SDS011;70828;51.158;4.998;2023-06-19T07:09:13;8.20;;;4.38;;
81374;SDS011;70828;51.158;4.998;2023-06-19T07:11:41;6.30;;;4.03;;
81374;SDS011;70828;51.158;4.998;2023-06-19T07:14:07;6.63;;;4.43;;
81374;SDS011;70828;51.158;4.998;2023-06-19T07:16:34;8.65;;;5.15;;
81374;SDS011;70828;51.158;4.998;2023-06-19T07:19:01;8.07;;;4.93;;
81374;SDS011;70828;51.158;4.998;2023-06-19T07:21:27;8.35;;;5.03;;
81374;SDS011;70828;51.158;4.998;2023-06-19T07:23:56;7.22;;;4.97;;
81374;SDS011;70828;51.158;4.998;2023-06-19T07:26:22;9.50;;;5.18;;
81374;SDS011;70828;51.158;4.998;2023-06-19T07:28:49;9.18;;;5.63;;
81374;SDS011;70828;51.158;4.998;2023-06-19T07:31:16;7.60;;;5.38;;
81374;SDS011;70828;51.158;4.998;2023-06-19T07:33:43;10.57;;;5.45;;
81374;SDS011;70828;51.158;4.998;2023-06-19T07:36:09;8.57;;;5.97;;
81374;SDS011;70828;51.158;4.998;2023-06-19T07:38:39;12.32;;;5.47;;
81374;SDS011;70828;51.158;4.998;2023-06-19T07:41:07;11.60;;;6.22;;
81374;SDS011;70828;51.158;4.998;2023-06-19T07:43:35;10.55;;;7.05;;
81374;SDS011;70828;51.158;4.998;2023-06-19T07:46:01;10.52;;;5.90;;
81374;SDS011;70828;51.158;4.998;2023-06-19T07:48:28;12.63;;;7.50;;
81374;SDS011;70828;51.158;4.998;2023-06-19T07:50:55;11.98;;;6.60;;
81374;SDS011;70828;51.158;4.998;2023-06-19T07:53:22;9.73;;;7.10;;
81374;SDS011;70828;51.158;4.998;2023-06-19T07:55:48;11.65;;;6.93;;
81374;SDS011;70828;51.158;4.998;2023-06-19T07:58:16;9.70;;;6.93;;
81374;SDS011;70828;51.158;4.998;2023-06-19T08:00:43;12.40;;;7.25;;
81374;SDS011;70828;51.158;4.998;2023-06-19T08:03:10;10.40;;;7.13;;
81374;SDS011;70828;51.158;4.998;2023-06-19T08:05:36;10.27;;;6.93;;
81374;SDS011;70828;51.158;4.998;2023-06-19T08:08:03;10.77;;;7.32;;
81374;SDS011;70828;51.158;4.998;2023-06-19T08:10:30;12.18;;;6.70;;
81374;SDS011;70828;51.158;4.998;2023-06-19T08:12:57;13.02;;;7.18;;
81374;SDS011;70828;51.158;4.998;2023-06-19T08:15:25;11.57;;;6.57;;
81374;SDS011;70828;51.158;4.998;2023-06-19T08:17:51;11.05;;;7.15;;
81374;SDS011;70828;51.158;4.998;2023-06-19T08:20:18;11.68;;;7.18;;
81374;SDS011;70828;51.158;4.998;2023-06-19T08:22:46;17.02;;;7.18;;
81374;SDS011;70828;51.158;4.998;2023-06-19T08:25:12;12.43;;;7.63;;
81374;SDS011;70828;51.158;4.998;2023-06-19T08:27:39;9.60;;;6.82;;
81374;SDS011;70828;51.158;4.998;2023-06-19T08:30:06;10.05;;;7.15;;
81374;SDS011;70828;51.158;4.998;2023-06-19T08:32:35;11.98;;;7.47;;
81374;SDS011;70828;51.158;4.998;2023-06-19T08:35:02;11.68;;;8.45;;
81374;SDS011;70828;51.158;4.998;2023-06-19T08:37:29;11.30;;;7.07;;
81374;SDS011;70828;51.158;4.998;2023-06-19T08:39:55;13.88;;;8.40;;
81374;SDS011;70828;51.158;4.998;2023-06-19T08:42:22;14.20;;;7.90;;
81374;SDS011;70828;51.158;4.998;2023-06-19T08:44:49;10.38;;;7.45;;
81374;SDS011;70828;51.158;4.998;2023-06-19T08:47:16;10.90;;;6.82;;
81374;SDS011;70828;51.158;4.998;2023-06-19T08:49:44;13.32;;;7.60;;
81374;SDS011;70828;51.158;4.998;2023-06-19T08:52:11;18.42;;;7.30;;
81374;SDS011;70828;51.158;4.998;2023-06-19T08:54:38;9.80;;;7.38;;
81374;SDS011;70828;51.158;4.998;2023-06-19T08:57:09;16.20;;;7.13;;
81374;SDS011;70828;51.158;4.998;2023-06-19T08:59:36;12.32;;;7.35;;
81374;SDS011;70828;51.158;4.998;2023-06-19T09:02:03;9.93;;;6.63;;
81374;SDS011;70828;51.158;4.998;2023-06-19T09:04:30;14.40;;;7.13;;
81374;SDS011;70828;51.158;4.998;2023-06-19T09:06:58;11.45;;;6.90;;
81374;SDS011;70828;51.158;4.998;2023-06-19T09:09:26;11.93;;;7.03;;
81374;SDS011;70828;51.158;4.998;2023-06-19T09:12:00;10.48;;;7.10;;
81374;SDS011;70828;51.158;4.998;2023-06-19T09:14:34;15.05;;;7.97;;
81374;SDS011;70828;51.158;4.998;2023-06-19T09:17:02;13.43;;;8.27;;
81374;SDS011;70828;51.158;4.998;2023-06-19T09:19:29;15.13;;;8.38;;
81374;SDS011;70828;51.158;4.998;2023-06-19T09:22:01;13.15;;;7.68;;
81374;SDS011;70828;51.158;4.998;2023-06-19T09:24:35;14.30;;;8.05;;
81374;SDS011;70828;51.158;4.998;2023-06-19T09:27:09;12.43;;;7.80;;
81374;SDS011;70828;51.158;4.998;2023-06-19T09:29:38;13.82;;;8.95;;
81374;SDS011;70828;51.158;4.998;2023-06-19T09:32:15;14.40;;;8.00;;
81374;SDS011;70828;51.158;4.998;2023-06-19T09:34:43;19.50;;;8.23;;
81374;SDS011;70828;51.158;4.998;2023-06-19T09:37:11;13.77;;;8.13;;
81374;SDS011;70828;51.158;4.998;2023-06-19T09:39:38;13.20;;;8.55;;
81374;SDS011;70828;51.158;4.998;2023-06-19T09:42:06;10.93;;;7.50;;
81374;SDS011;70828;51.158;4.998;2023-06-19T09:44:37;11.95;;;7.57;;
81374;SDS011;70828;51.158;4.998;2023-06-19T09:47:06;13.52;;;7.60;;
81374;SDS011;70828;51.158;4.998;2023-06-19T09:49:42;12.52;;;7.50;;
81374;SDS011;70828;51.158;4.998;2023-06-19T09:52:09;18.60;;;7.32;;
81374;SDS011;70828;51.158;4.998;2023-06-19T09:54:37;9.43;;;6.53;;
81374;SDS011;70828;51.158;4.998;2023-06-19T09:57:04;13.40;;;8.27;;
81374;SDS011;70828;51.158;4.998;2023-06-19T09:59:32;13.23;;;6.93;;
81374;SDS011;70828;51.158;4.998;2023-06-19T10:01:59;10.25;;;6.32;;
81374;SDS011;70828;51.158;4.998;2023-06-19T10:04:26;10.93;;;7.22;;
81374;SDS011;70828;51.158;4.998;2023-06-19T10:06:54;11.55;;;5.70;;
81374;SDS011;70828;51.158;4.998;2023-06-19T10:09:22;11.27;;;6.68;;
81374;SDS011;70828;51.158;4.998;2023-06-19T10:11:51;11.07;;;7.13;;
81374;SDS011;70828;51.158;4.998;2023-06-19T10:14:18;10.45;;;6.53;;
81374;SDS011;70828;51.158;4.998;2023-06-19T10:16:45;15.75;;;6.78;;
81374;SDS011;70828;51.158;4.998;2023-06-19T10:19:13;10.07;;;5.78;;
81374;SDS011;70828;51.158;4.998;2023-06-19T10:21:44;10.18;;;7.18;;
81374;SDS011;70828;51.158;4.998;2023-06-19T10:24:13;10.32;;;7.00;;
81374;SDS011;70828;51.158;4.998;2023-06-19T10:26:41;14.73;;;6.80;;
81374;SDS011;70828;51.158;4.998;2023-06-19T10:29:15;10.20;;;5.80;;
81374;SDS011;70828;51.158;4.998;2023-06-19T10:31:43;10.75;;;5.78;;
81374;SDS011;70828;51.158;4.998;2023-06-19T10:34:10;11.07;;;6.50;;
81374;SDS011;70828;51.158;4.998;2023-06-19T10:36:37;10.15;;;6.47;;
81374;SDS011;70828;51.158;4.998;2023-06-19T10:39:04;7.47;;;5.60;;
81374;SDS011;70828;51.158;4.998;2023-06-19T10:41:31;10.55;;;5.68;;
81374;SDS011;70828;51.158;4.998;2023-06-19T10:43:58;10.73;;;6.03;;
81374;SDS011;70828;51.158;4.998;2023-06-19T10:46:30;8.32;;;5.55;;
81374;SDS011;70828;51.158;4.998;2023-06-19T10:48:58;11.60;;;7.18;;
81374;SDS011;70828;51.158;4.998;2023-06-19T10:51:26;11.43;;;6.88;;
81374;SDS011;70828;51.158;4.998;2023-06-19T10:53:53;8.35;;;5.65;;
81374;SDS011;70828;51.158;4.998;2023-06-19T10:56:21;8.55;;;5.93;;
81374;SDS011;70828;51.158;4.998;2023-06-19T10:58:48;8.75;;;5.07;;
81374;SDS011;70828;51.158;4.998;2023-06-19T11:01:22;10.82;;;5.45;;
81374;SDS011;70828;51.158;4.998;2023-06-19T11:03:50;8.10;;;4.80;;
81374;SDS011;70828;51.158;4.998;2023-06-19T11:06:19;12.05;;;5.18;;
81374;SDS011;70828;51.158;4.998;2023-06-19T11:08:50;8.98;;;5.85;;
81374;SDS011;70828;51.158;4.998;2023-06-19T11:11:17;10.40;;;5.03;;
81374;SDS011;70828;51.158;4.998;2023-06-19T11:13:45;11.35;;;5.28;;
81374;SDS011;70828;51.158;4.998;2023-06-19T11:16:13;9.43;;;5.30;;
81374;SDS011;70828;51.158;4.998;2023-06-19T11:18:40;7.57;;;4.63;;
81374;SDS011;70828;51.158;4.998;2023-06-19T11:21:08;11.25;;;5.68;;
81374;SDS011;70828;51.158;4.998;2023-06-19T11:23:35;8.90;;;5.40;;
81374;SDS011;70828;51.158;4.998;2023-06-19T11:26:02;10.73;;;4.97;;
81374;SDS011;70828;51.158;4.998;2023-06-19T11:28:29;9.15;;;4.63;;
81374;SDS011;70828;51.158;4.998;2023-06-19T11:30:57;13.93;;;5.47;;
81374;SDS011;70828;51.158;4.998;2023-06-19T11:33:24;13.70;;;5.07;;
81374;SDS011;70828;51.158;4.998;2023-06-19T11:35:51;7.35;;;4.55;;
81374;SDS011;70828;51.158;4.998;2023-06-19T11:38:21;7.43;;;4.82;;
81374;SDS011;70828;51.158;4.998;2023-06-19T11:40:48;11.68;;;5.47;;
81374;SDS011;70828;51.158;4.998;2023-06-19T11:43:23;8.85;;;4.88;;
81374;SDS011;70828;51.158;4.998;2023-06-19T11:45:50;10.80;;;5.35;;
81374;SDS011;70828;51.158;4.998;2023-06-19T11:48:26;12.07;;;5.38;;
81374;SDS011;70828;51.158;4.998;2023-06-19T11:50:53;11.65;;;4.57;;
81374;SDS011;70828;51.158;4.998;2023-06-19T11:53:21;7.07;;;4.25;;
81374;SDS011;70828;51.158;4.998;2023-06-19T11:55:49;8.93;;;4.85;;
81374;SDS011;70828;51.158;4.998;2023-06-19T11:58:16;9.02;;;4.18;;
81374;SDS011;70828;51.158;4.998;2023-06-19T12:00:44;6.88;;;4.25;;
81374;SDS011;70828;51.158;4.998;2023-06-19T12:03:11;10.40;;;4.10;;
81374;SDS011;70828;51.158;4.998;2023-06-19T12:05:38;5.70;;;4.22;;
81374;SDS011;70828;51.158;4.998;2023-06-19T12:08:04;9.02;;;4.35;;
81374;SDS011;70828;51.158;4.998;2023-06-19T12:10:33;6.85;;;4.25;;
81374;SDS011;70828;51.158;4.998;2023-06-19T12:12:59;9.52;;;4.90;;
81374;SDS011;70828;51.158;4.998;2023-06-19T12:15:26;8.43;;;4.70;;
81374;SDS011;70828;51.158;4.998;2023-06-19T12:17:53;7.72;;;3.90;;
81374;SDS011;70828;51.158;4.998;2023-06-19T12:20:23;6.63;;;4.00;;
81374;SDS011;70828;51.158;4.998;2023-06-19T12:22:49;11.00;;;4.80;;
81374;SDS011;70828;51.158;4.998;2023-06-19T12:25:16;8.68;;;4.78;;
81374;SDS011;70828;51.158;4.998;2023-06-19T12:27:44;7.57;;;4.03;;
81374;SDS011;70828;51.158;4.998;2023-06-19T12:30:11;8.00;;;3.78;;
81374;SDS011;70828;51.158;4.998;2023-06-19T12:32:38;8.00;;;4.32;;
81374;SDS011;70828;51.158;4.998;2023-06-19T12:35:05;5.72;;;4.53;;
81374;SDS011;70828;51.158;4.998;2023-06-19T12:37:32;6.93;;;4.43;;
81374;SDS011;70828;51.158;4.998;2023-06-19T12:39:59;7.35;;;3.85;;
81374;SDS011;70828;51.158;4.998;2023-06-19T12:42:26;6.25;;;3.80;;
81374;SDS011;70828;51.158;4.998;2023-06-19T12:44:54;7.03;;;3.72;;
81374;SDS011;70828;51.158;4.998;2023-06-19T12:47:20;7.65;;;4.20;;
81374;SDS011;70828;51.158;4.998;2023-06-19T12:49:47;9.57;;;4.20;;
81374;SDS011;70828;51.158;4.998;2023-06-19T12:52:14;8.05;;;4.18;;
81374;SDS011;70828;51.158;4.998;2023-06-19T12:54:40;6.88;;;4.30;;
81374;SDS011;70828;51.158;4.998;2023-06-19T12:57:08;7.80;;;3.90;;
81374;SDS011;70828;51.158;4.998;2023-06-19T12:59:34;9.63;;;4.45;;
81374;SDS011;70828;51.158;4.998;2023-06-19T13:02:03;5.90;;;3.78;;
81374;SDS011;70828;51.158;4.998;2023-06-19T13:04:29;9.02;;;3.72;;
81374;SDS011;70828;51.158;4.998;2023-06-19T13:06:56;6.72;;;4.22;;
81374;SDS011;70828;51.158;4.998;2023-06-19T13:09:23;5.30;;;4.20;;
81374;SDS011;70828;51.158;4.998;2023-06-19T13:11:49;10.60;;;5.10;;
81374;SDS011;70828;51.158;4.998;2023-06-19T13:14:16;11.45;;;4.45;;
81374;SDS011;70828;51.158;4.998;2023-06-19T13:16:43;5.35;;;4.32;;
81374;SDS011;70828;51.158;4.998;2023-06-19T13:19:11;6.45;;;4.10;;
81374;SDS011;70828;51.158;4.998;2023-06-19T13:21:37;8.10;;;3.90;;
81374;SDS011;70828;51.158;4.998;2023-06-19T13:24:04;5.90;;;4.35;;
81374;SDS011;70828;51.158;4.998;2023-06-19T13:26:31;9.23;;;3.80;;
81374;SDS011;70828;51.158;4.998;2023-06-19T13:28:58;12.48;;;4.95;;
81374;SDS011;70828;51.158;4.998;2023-06-19T13:31:25;20.92;;;5.28;;
81374;SDS011;70828;51.158;4.998;2023-06-19T13:33:52;6.70;;;4.30;;
81374;SDS011;70828;51.158;4.998;2023-06-19T13:36:21;8.30;;;4.00;;
81374;SDS011;70828;51.158;4.998;2023-06-19T13:38:49;8.05;;;4.72;;
81374;SDS011;70828;51.158;4.998;2023-06-19T13:41:17;7.00;;;4.60;;
81374;SDS011;70828;51.158;4.998;2023-06-19T13:43:43;18.42;;;5.45;;
81374;SDS011;70828;51.158;4.998;2023-06-19T13:46:11;7.07;;;3.97;;
81374;SDS011;70828;51.158;4.998;2023-06-19T13:48:38;5.97;;;3.80;;
81374;SDS011;70828;51.158;4.998;2023-06-19T13:51:04;5.68;;;4.22;;
81374;SDS011;70828;51.158;4.998;2023-06-19T13:53:32;5.57;;;3.83;;
81374;SDS011;70828;51.158;4.998;2023-06-19T13:55:59;5.50;;;4.25;;
81374;SDS011;70828;51.158;4.998;2023-06-19T13:58:26;5.03;;;3.65;;
81374;SDS011;70828;51.158;4.998;2023-06-19T14:00:52;10.18;;;4.32;;
81374;SDS011;70828;51.158;4.998;2023-06-19T14:03:19;6.53;;;3.85;;
81374;SDS011;70828;51.158;4.998;2023-06-19T14:05:46;6.03;;;4.50;;
81374;SDS011;70828;51.158;4.998;2023-06-19T14:08:12;5.72;;;3.90;;
81374;SDS011;70828;51.158;4.998;2023-06-19T14:10:40;5.28;;;4.03;;
81374;SDS011;70828;51.158;4.998;2023-06-19T14:13:08;6.63;;;4.40;;
81374;SDS011;70828;51.158;4.998;2023-06-19T14:15:35;4.80;;;3.88;;
81374;SDS011;70828;51.158;4.998;2023-06-19T14:18:01;8.35;;;4.30;;
81374;SDS011;70828;51.158;4.998;2023-06-19T14:20:28;6.05;;;4.13;;
81374;SDS011;70828;51.158;4.998;2023-06-19T14:22:55;5.97;;;4.55;;
81374;SDS011;70828;51.158;4.998;2023-06-19T14:25:21;5.20;;;4.25;;
81374;SDS011;70828;51.158;4.998;2023-06-19T14:27:49;6.70;;;3.80;;
81374;SDS011;70828;51.158;4.998;2023-06-19T14:30:16;5.60;;;4.25;;
81374;SDS011;70828;51.158;4.998;2023-06-19T14:32:43;6.15;;;4.00;;
81374;SDS011;70828;51.158;4.998;2023-06-19T14:35:09;5.57;;;4.20;;
81374;SDS011;70828;51.158;4.998;2023-06-19T14:37:36;5.63;;;3.75;;
81374;SDS011;70828;51.158;4.998;2023-06-19T14:40:03;6.40;;;4.07;;
81374;SDS011;70828;51.158;4.998;2023-06-19T14:42:31;6.03;;;4.28;;
81374;SDS011;70828;51.158;4.998;2023-06-19T14:44:59;6.28;;;3.88;;
81374;SDS011;70828;51.158;4.998;2023-06-19T14:47:26;7.78;;;4.57;;